sensor_id;sensor_type;location;lat;lon;timestamp;pressure;altitude;pressure_sealevel;temperature;humidity
36748;BME280;22716;51.556;5.080;2022-11-20T00:02:15;101106.41;;;1.32;91.51
36748;BME280;22716;51.556;5.080;2022-11-20T00:04:44;101118.78;;;1.42;91.47
36748;BME280;22716;51.556;5.080;2022-11-20T00:07:13;101106.69;;;1.41;91.39
36748;BME280;22716;51.556;5.080;2022-11-20T00:09:42;101110.22;;;1.43;91.38
36748;BME280;22716;51.556;5.080;2022-11-20T00:12:11;101116.28;;;1.45;91.61
36748;BME280;22716;51.556;5.080;2022-11-20T00:14:42;101124.75;;;1.41;91.39
36748;BME280;22716;51.556;5.080;2022-11-20T00:17:11;101128.81;;;1.33;91.62
36748;BME280;22716;51.556;5.080;2022-11-20T00:19:40;101105.97;;;1.17;91.53
36748;BME280;22716;51.556;5.080;2022-11-20T00:22:09;101133.66;;;1.23;91.93
36748;BME280;22716;51.556;5.080;2022-11-20T00:24:38;101134.25;;;1.14;91.95
36748;BME280;22716;51.556;5.080;2022-11-20T00:27:07;101111.50;;;1.02;92.14
36748;BME280;22716;51.556;5.080;2022-11-20T00:29:36;101125.53;;;1.10;92.48
36748;BME280;22716;51.556;5.080;2022-11-20T00:32:08;101128.19;;;1.13;92.54
36748;BME280;22716;51.556;5.080;2022-11-20T00:34:36;101113.44;;;1.09;92.56
36748;BME280;22716;51.556;5.080;2022-11-20T00:37:07;101130.19;;;1.22;92.49
36748;BME280;22716;51.556;5.080;2022-11-20T00:39:37;101125.72;;;1.17;92.86
36748;BME280;22716;51.556;5.080;2022-11-20T00:42:07;101125.72;;;1.17;92.88
36748;BME280;22716;51.556;5.080;2022-11-20T00:44:36;101114.81;;;1.25;92.81
36748;BME280;22716;51.556;5.080;2022-11-20T00:47:08;101123.16;;;1.18;92.71
36748;BME280;22716;51.556;5.080;2022-11-20T00:49:37;101123.38;;;1.24;93.06
36748;BME280;22716;51.556;5.080;2022-11-20T00:52:06;101116.47;;;1.23;93.14
36748;BME280;22716;51.556;5.080;2022-11-20T00:54:36;101106.91;;;1.21;92.94
36748;BME280;22716;51.556;5.080;2022-11-20T00:57:04;101104.19;;;1.16;93.39
36748;BME280;22716;51.556;5.080;2022-11-20T00:59:34;101126.13;;;1.29;93.13
36748;BME280;22716;51.556;5.080;2022-11-20T01:02:03;101125.13;;;1.25;93.33
36748;BME280;22716;51.556;5.080;2022-11-20T01:04:34;101126.13;;;1.29;93.35
36748;BME280;22716;51.556;5.080;2022-11-20T01:07:04;101120.88;;;1.27;93.42
36748;BME280;22716;51.556;5.080;2022-11-20T01:09:32;101112.25;;;1.27;93.44
36748;BME280;22716;51.556;5.080;2022-11-20T01:12:02;101120.97;;;1.30;93.42
36748;BME280;22716;51.556;5.080;2022-11-20T01:14:31;101112.16;;;1.24;93.26
36748;BME280;22716;51.556;5.080;2022-11-20T01:17:00;101106.97;;;1.22;93.57
36748;BME280;22716;51.556;5.080;2022-11-20T01:19:28;101097.16;;;1.12;93.52
36748;BME280;22716;51.556;5.080;2022-11-20T01:22:02;101111.03;;;1.14;94.08
36748;BME280;22716;51.556;5.080;2022-11-20T01:24:31;101102.09;;;1.04;93.94
36748;BME280;22716;51.556;5.080;2022-11-20T01:27:01;101122.13;;;1.11;94.39
36748;BME280;22716;51.556;5.080;2022-11-20T01:29:30;101124.72;;;1.11;93.91
36748;BME280;22716;51.556;5.080;2022-11-20T01:32:01;101127.75;;;1.00;94.31
36748;BME280;22716;51.556;5.080;2022-11-20T01:34:30;101121.72;;;0.99;94.60
36748;BME280;22716;51.556;5.080;2022-11-20T01:36:58;101123.44;;;0.99;94.58
36748;BME280;22716;51.556;5.080;2022-11-20T01:39:31;101106.97;;;0.95;94.70
36748;BME280;22716;51.556;5.080;2022-11-20T01:42:02;101113.69;;;0.90;94.77
36748;BME280;22716;51.556;5.080;2022-11-20T01:47:58;101119.44;;;1.08;94.57
36748;BME280;22716;51.556;5.080;2022-11-20T01:50:28;101107.09;;;1.00;94.43
36748;BME280;22716;51.556;5.080;2022-11-20T01:53:02;101099.13;;;0.92;94.40
36748;BME280;22716;51.556;5.080;2022-11-20T01:55:39;101103.16;;;0.84;94.44
36748;BME280;22716;51.556;5.080;2022-11-20T01:58:10;101109.03;;;0.80;94.66
36748;BME280;22716;51.556;5.080;2022-11-20T02:00:41;101119.53;;;0.85;94.63
36748;BME280;22716;51.556;5.080;2022-11-20T02:03:12;101116.00;;;0.83;94.67
36748;BME280;22716;51.556;5.080;2022-11-20T02:05:46;101103.00;;;0.80;94.57
36748;BME280;22716;51.556;5.080;2022-11-20T02:08:18;101114.56;;;0.91;94.52
36748;BME280;22716;51.556;5.080;2022-11-20T02:10:51;101106.66;;;0.86;94.36
36748;BME280;22716;51.556;5.080;2022-11-20T02:13:20;101103.19;;;0.86;94.30
36748;BME280;22716;51.556;5.080;2022-11-20T02:16:02;101108.53;;;0.90;94.24
36748;BME280;22716;51.556;5.080;2022-11-20T02:18:31;101099.56;;;0.79;94.57
36748;BME280;22716;51.556;5.080;2022-11-20T02:21:07;101114.41;;;0.86;94.43
36748;BME280;22716;51.556;5.080;2022-11-20T02:26:13;101108.81;;;0.73;94.35
36748;BME280;22716;51.556;5.080;2022-11-20T02:28:45;101117.56;;;0.78;94.44
36748;BME280;22716;51.556;5.080;2022-11-20T02:31:14;101115.09;;;0.81;94.54
36748;BME280;22716;51.556;5.080;2022-11-20T02:33:43;101109.94;;;0.81;94.25
36748;BME280;22716;51.556;5.080;2022-11-20T02:36:17;101103.19;;;0.86;94.52
36748;BME280;22716;51.556;5.080;2022-11-20T02:38:46;101101.59;;;0.89;94.54
36748;BME280;22716;51.556;5.080;2022-11-20T02:41:18;101093.19;;;0.95;94.29
36748;BME280;22716;51.556;5.080;2022-11-20T02:43:46;101093.38;;;1.01;94.44
36748;BME280;22716;51.556;5.080;2022-11-20T02:46:16;101094.59;;;1.12;94.77
36748;BME280;22716;51.556;5.080;2022-11-20T02:48:45;101089.00;;;1.25;94.70
36748;BME280;22716;51.556;5.080;2022-11-20T02:51:15;101085.75;;;1.32;94.52
36748;BME280;22716;51.556;5.080;2022-11-20T02:53:44;101071.81;;;1.26;94.74
36748;BME280;22716;51.556;5.080;2022-11-20T02:56:13;101087.47;;;1.32;94.48
36748;BME280;22716;51.556;5.080;2022-11-20T02:58:45;101085.91;;;1.37;94.59
36748;BME280;22716;51.556;5.080;2022-11-20T03:01:13;101085.91;;;1.37;94.53
36748;BME280;22716;51.556;5.080;2022-11-20T03:03:43;101081.34;;;1.28;94.95
36748;BME280;22716;51.556;5.080;2022-11-20T03:06:15;101074.22;;;1.21;95.14
36748;BME280;22716;51.556;5.080;2022-11-20T03:08:45;101072.72;;;1.28;94.99
36748;BME280;22716;51.556;5.080;2022-11-20T03:11:16;101067.63;;;1.29;94.90
36748;BME280;22716;51.556;5.080;2022-11-20T03:13:48;101065.19;;;1.35;94.80
36748;BME280;22716;51.556;5.080;2022-11-20T03:16:20;101067.84;;;1.37;94.92
36748;BME280;22716;51.556;5.080;2022-11-20T03:18:52;101055.03;;;1.40;94.73
36748;BME280;22716;51.556;5.080;2022-11-20T03:21:21;101063.78;;;1.45;95.03
36748;BME280;22716;51.556;5.080;2022-11-20T03:23:50;101057.69;;;1.43;94.65
36748;BME280;22716;51.556;5.080;2022-11-20T03:26:21;101043.88;;;1.41;94.50
36748;BME280;22716;51.556;5.080;2022-11-20T03:28:55;101052.63;;;1.46;94.77
36748;BME280;22716;51.556;5.080;2022-11-20T03:31:26;101055.22;;;1.47;94.98
36748;BME280;22716;51.556;5.080;2022-11-20T03:33:58;101049.28;;;1.50;94.95
36748;BME280;22716;51.556;5.080;2022-11-20T03:36:32;101059.75;;;1.54;95.04
36748;BME280;22716;51.556;5.080;2022-11-20T03:39:02;101050.16;;;1.50;94.69
36748;BME280;22716;51.556;5.080;2022-11-20T03:41:35;101041.69;;;1.54;94.87
36748;BME280;22716;51.556;5.080;2022-11-20T03:44:09;101041.78;;;1.57;94.64
36748;BME280;22716;51.556;5.080;2022-11-20T03:46:40;101025.31;;;1.54;94.65
36748;BME280;22716;51.556;5.080;2022-11-20T03:49:09;101015.03;;;1.55;94.88
36748;BME280;22716;51.556;5.080;2022-11-20T03:51:42;101024.59;;;1.59;94.72
36748;BME280;22716;51.556;5.080;2022-11-20T03:54:11;101032.16;;;1.52;95.07
36748;BME280;22716;51.556;5.080;2022-11-20T03:56:40;101038.00;;;1.46;95.30
36748;BME280;22716;51.556;5.080;2022-11-20T03:59:13;101043.03;;;1.42;95.46
36748;BME280;22716;51.556;5.080;2022-11-20T04:01:42;101028.19;;;1.35;95.41
36748;BME280;22716;51.556;5.080;2022-11-20T04:04:12;101034.31;;;1.38;95.78
36748;BME280;22716;51.556;5.080;2022-11-20T04:06:41;101030.03;;;1.39;95.63
36748;BME280;22716;51.556;5.080;2022-11-20T04:09:10;101025.75;;;1.39;95.99
36748;BME280;22716;51.556;5.080;2022-11-20T04:11:41;101021.38;;;1.37;95.78
36748;BME280;22716;51.556;5.080;2022-11-20T04:14:15;101022.84;;;1.29;96.18
36748;BME280;22716;51.556;5.080;2022-11-20T04:16:44;101019.56;;;1.34;96.01
36748;BME280;22716;51.556;5.080;2022-11-20T04:19:15;101029.13;;;1.38;96.21
36748;BME280;22716;51.556;5.080;2022-11-20T04:21:45;101021.47;;;1.40;96.15
36748;BME280;22716;51.556;5.080;2022-11-20T04:24:13;101021.66;;;1.47;96.24
36748;BME280;22716;51.556;5.080;2022-11-20T04:26:42;101016.47;;;1.46;96.29
36748;BME280;22716;51.556;5.080;2022-11-20T04:29:15;101012.84;;;1.39;96.44
36748;BME280;22716;51.556;5.080;2022-11-20T04:31:45;101022.44;;;1.43;96.58
36748;BME280;22716;51.556;5.080;2022-11-20T04:34:14;101018.19;;;1.47;96.56
36748;BME280;22716;51.556;5.080;2022-11-20T04:36:43;101013.09;;;1.48;96.52
36748;BME280;22716;51.556;5.080;2022-11-20T04:39:14;101010.44;;;1.45;96.68
36748;BME280;22716;51.556;5.080;2022-11-20T04:41:43;101007.81;;;1.44;96.65
36748;BME280;22716;51.556;5.080;2022-11-20T04:44:15;101008.72;;;1.46;97.13
36748;BME280;22716;51.556;5.080;2022-11-20T04:46:44;101006.22;;;1.49;97.25
36748;BME280;22716;51.556;5.080;2022-11-20T04:49:14;101000.97;;;1.46;97.19
36748;BME280;22716;51.556;5.080;2022-11-20T04:51:42;101000.91;;;1.44;97.65
36748;BME280;22716;51.556;5.080;2022-11-20T04:54:12;100998.25;;;1.41;97.66
36748;BME280;22716;51.556;5.080;2022-11-20T04:56:42;100985.31;;;1.40;98.03
36748;BME280;22716;51.556;5.080;2022-11-20T04:59:11;100999.94;;;1.39;98.38
36748;BME280;22716;51.556;5.080;2022-11-20T05:01:43;100997.06;;;1.30;98.48
36748;BME280;22716;51.556;5.080;2022-11-20T05:04:11;100985.84;;;1.28;98.80
36748;BME280;22716;51.556;5.080;2022-11-20T05:06:42;100987.50;;;1.26;99.29
36748;BME280;22716;51.556;5.080;2022-11-20T05:09:11;100995.28;;;1.28;99.43
36748;BME280;22716;51.556;5.080;2022-11-20T05:11:41;100995.19;;;1.25;99.45
36748;BME280;22716;51.556;5.080;2022-11-20T05:14:10;100994.50;;;1.30;99.62
36748;BME280;22716;51.556;5.080;2022-11-20T05:16:42;100991.91;;;1.30;99.64
36748;BME280;22716;51.556;5.080;2022-11-20T05:19:10;100985.03;;;1.29;99.91
36748;BME280;22716;51.556;5.080;2022-11-20T05:21:39;100984.25;;;1.33;100.00
36748;BME280;22716;51.556;5.080;2022-11-20T05:24:08;100978.28;;;1.34;100.00
36748;BME280;22716;51.556;5.080;2022-11-20T05:26:37;100973.94;;;1.33;100.00
36748;BME280;22716;51.556;5.080;2022-11-20T05:29:09;100979.06;;;1.32;100.00
36748;BME280;22716;51.556;5.080;2022-11-20T05:31:42;100986.03;;;1.34;100.00
36748;BME280;22716;51.556;5.080;2022-11-20T05:34:11;100986.81;;;1.32;100.00
36748;BME280;22716;51.556;5.080;2022-11-20T05:36:40;100985.84;;;1.28;100.00
36748;BME280;22716;51.556;5.080;2022-11-20T05:39:08;100971.84;;;1.20;100.00
36748;BME280;22716;51.556;5.080;2022-11-20T05:41:42;100977.91;;;1.22;100.00
36748;BME280;22716;51.556;5.080;2022-11-20T05:44:12;100980.31;;;1.16;100.00
36748;BME280;22716;51.556;5.080;2022-11-20T05:46:45;100985.28;;;1.10;100.00
36748;BME280;22716;51.556;5.080;2022-11-20T05:49:15;100997.38;;;1.11;100.00
36748;BME280;22716;51.556;5.080;2022-11-20T05:51:44;101005.16;;;1.12;100.00
36748;BME280;22716;51.556;5.080;2022-11-20T05:54:14;101011.19;;;1.13;100.00
36748;BME280;22716;51.556;5.080;2022-11-20T05:56:43;100999.00;;;1.09;100.00
36748;BME280;22716;51.556;5.080;2022-11-20T05:59:11;101000.75;;;1.08;100.00
36748;BME280;22716;51.556;5.080;2022-11-20T06:01:40;100993.00;;;1.08;100.00
36748;BME280;22716;51.556;5.080;2022-11-20T06:04:12;100994.69;;;1.08;100.00
36748;BME280;22716;51.556;5.080;2022-11-20T06:06:40;100998.19;;;1.10;100.00
36748;BME280;22716;51.556;5.080;2022-11-20T06:09:12;101006.84;;;1.12;100.00
36748;BME280;22716;51.556;5.080;2022-11-20T06:11:41;101010.22;;;1.09;100.00
36748;BME280;22716;51.556;5.080;2022-11-20T06:14:09;101007.63;;;1.09;100.00
36748;BME280;22716;51.556;5.080;2022-11-20T06:16:39;100997.22;;;1.06;100.00
36748;BME280;22716;51.556;5.080;2022-11-20T06:19:08;100999.00;;;1.09;100.00
36748;BME280;22716;51.556;5.080;2022-11-20T06:21:39;100988.59;;;1.06;100.00
36748;BME280;22716;51.556;5.080;2022-11-20T06:24:10;100976.66;;;1.09;100.00
36748;BME280;22716;51.556;5.080;2022-11-20T06:26:40;100975.78;;;1.09;100.00
36748;BME280;22716;51.556;5.080;2022-11-20T06:29:09;100983.69;;;1.13;100.00
36748;BME280;22716;51.556;5.080;2022-11-20T06:31:38;100973.28;;;1.10;100.00
36748;BME280;22716;51.556;5.080;2022-11-20T06:34:08;100968.13;;;1.10;100.00
36748;BME280;22716;51.556;5.080;2022-11-20T06:36:40;100969.81;;;1.10;100.00
36748;BME280;22716;51.556;5.080;2022-11-20T06:39:09;100973.91;;;1.03;100.00
36748;BME280;22716;51.556;5.080;2022-11-20T06:41:39;100982.63;;;1.07;100.00
36748;BME280;22716;51.556;5.080;2022-11-20T06:44:08;100972.28;;;1.05;100.00
36748;BME280;22716;51.556;5.080;2022-11-20T06:46:37;100984.22;;;1.03;100.00
36748;BME280;22716;51.556;5.080;2022-11-20T06:49:06;100980.81;;;1.04;100.00
36748;BME280;22716;51.556;5.080;2022-11-20T06:51:34;100972.00;;;0.96;100.00
36748;BME280;22716;51.556;5.080;2022-11-20T06:54:08;100980.78;;;1.03;100.00
36748;BME280;22716;51.556;5.080;2022-11-20T06:56:36;100954.38;;;0.83;100.00
36748;BME280;22716;51.556;5.080;2022-11-20T06:59:07;100973.53;;;0.91;100.00
36748;BME280;22716;51.556;5.080;2022-11-20T07:01:36;100957.13;;;0.88;100.00
36748;BME280;22716;51.556;5.080;2022-11-20T07:04:06;100963.31;;;0.94;100.00
36748;BME280;22716;51.556;5.080;2022-11-20T07:06:35;100968.56;;;0.97;100.00
36748;BME280;22716;51.556;5.080;2022-11-20T07:09:03;100961.69;;;0.98;100.00
36748;BME280;22716;51.556;5.080;2022-11-20T07:11:35;100971.19;;;0.99;100.00
36748;BME280;22716;51.556;5.080;2022-11-20T07:14:09;100964.94;;;0.91;100.00
36748;BME280;22716;51.556;5.080;2022-11-20T07:16:38;100963.13;;;0.88;100.00
36748;BME280;22716;51.556;5.080;2022-11-20T07:19:07;100964.66;;;0.82;100.00
36748;BME280;22716;51.556;5.080;2022-11-20T07:21:37;100962.13;;;0.83;100.00
36748;BME280;22716;51.556;5.080;2022-11-20T07:24:08;100964.00;;;0.89;100.00
36748;BME280;22716;51.556;5.080;2022-11-20T07:26:40;100957.06;;;0.86;100.00
36748;BME280;22716;51.556;5.080;2022-11-20T07:29:09;100963.22;;;0.91;100.00
36748;BME280;22716;51.556;5.080;2022-11-20T07:31:38;100953.69;;;0.89;100.00
36748;BME280;22716;51.556;5.080;2022-11-20T07:34:08;100954.56;;;0.89;100.00
36748;BME280;22716;51.556;5.080;2022-11-20T07:36:37;100962.28;;;0.88;100.00
36748;BME280;22716;51.556;5.080;2022-11-20T07:39:06;100975.19;;;0.89;100.00
36748;BME280;22716;51.556;5.080;2022-11-20T07:41:35;100973.25;;;0.82;100.00
36748;BME280;22716;51.556;5.080;2022-11-20T07:44:07;100968.88;;;0.80;100.00
36748;BME280;22716;51.556;5.080;2022-11-20T07:46:36;100968.09;;;0.82;100.00
36748;BME280;22716;51.556;5.080;2022-11-20T07:49:05;100968.88;;;0.80;100.00
36748;BME280;22716;51.556;5.080;2022-11-20T07:51:34;100960.13;;;0.75;100.00
36748;BME280;22716;51.556;5.080;2022-11-20T07:54:03;100973.22;;;0.81;100.00
36748;BME280;22716;51.556;5.080;2022-11-20T07:56:35;100965.69;;;0.88;100.00
36748;BME280;22716;51.556;5.080;2022-11-20T07:59:04;100968.44;;;0.93;100.00
36748;BME280;22716;51.556;5.080;2022-11-20T08:01:38;100966.13;;;1.02;100.00
36748;BME280;22716;51.556;5.080;2022-11-20T08:04:06;100976.56;;;1.06;100.00
36748;BME280;22716;51.556;5.080;2022-11-20T08:06:35;100967.97;;;1.06;100.00
36748;BME280;22716;51.556;5.080;2022-11-20T08:09:05;100968.91;;;1.08;100.00
36748;BME280;22716;51.556;5.080;2022-11-20T08:11:33;100971.47;;;1.08;100.00
36748;BME280;22716;51.556;5.080;2022-11-20T08:14:15;100964.66;;;1.10;100.00
36748;BME280;22716;51.556;5.080;2022-11-20T08:16:48;100968.22;;;1.15;100.00
36748;BME280;22716;51.556;5.080;2022-11-20T08:19:18;100963.84;;;1.11;100.00
36748;BME280;22716;51.556;5.080;2022-11-20T08:21:47;100979.41;;;1.14;100.00
36748;BME280;22716;51.556;5.080;2022-11-20T08:24:16;100961.25;;;1.11;100.00
36748;BME280;22716;51.556;5.080;2022-11-20T08:26:45;100968.28;;;1.17;100.00
36748;BME280;22716;51.556;5.080;2022-11-20T08:29:14;100971.84;;;1.20;100.00
36748;BME280;22716;51.556;5.080;2022-11-20T08:31:46;100965.03;;;1.24;100.00
36748;BME280;22716;51.556;5.080;2022-11-20T08:34:15;100977.50;;;1.38;100.00
36748;BME280;22716;51.556;5.080;2022-11-20T08:36:43;100963.97;;;1.45;100.00
36748;BME280;22716;51.556;5.080;2022-11-20T08:39:13;100976.03;;;1.46;100.00
36748;BME280;22716;51.556;5.080;2022-11-20T08:41:48;100965.63;;;1.43;100.00
36748;BME280;22716;51.556;5.080;2022-11-20T08:44:17;100975.25;;;1.49;100.00
36748;BME280;22716;51.556;5.080;2022-11-20T08:46:49;100967.59;;;1.52;100.00
36748;BME280;22716;51.556;5.080;2022-11-20T08:49:18;100969.38;;;1.54;100.00
36748;BME280;22716;51.556;5.080;2022-11-20T08:51:48;100963.50;;;1.60;100.00
36748;BME280;22716;51.556;5.080;2022-11-20T08:54:19;100965.38;;;1.65;100.00
36748;BME280;22716;51.556;5.080;2022-11-20T08:56:48;100966.28;;;1.67;100.00
36748;BME280;22716;51.556;5.080;2022-11-20T08:59:17;100959.56;;;1.74;100.00
36748;BME280;22716;51.556;5.080;2022-11-20T09:01:49;100960.47;;;1.75;100.00
36748;BME280;22716;51.556;5.080;2022-11-20T09:04:17;100962.38;;;1.82;100.00
36748;BME280;22716;51.556;5.080;2022-11-20T09:06:48;100958.28;;;1.90;100.00
36748;BME280;22716;51.556;5.080;2022-11-20T09:09:17;100961.84;;;1.95;100.00
36748;BME280;22716;51.556;5.080;2022-11-20T09:11:47;100949.91;;;2.00;100.00
36748;BME280;22716;51.556;5.080;2022-11-20T09:14:16;100944.00;;;2.04;100.00
36748;BME280;22716;51.556;5.080;2022-11-20T09:16:45;100933.84;;;2.11;100.00
36748;BME280;22716;51.556;5.080;2022-11-20T09:19:17;100929.69;;;2.16;100.00
36748;BME280;22716;51.556;5.080;2022-11-20T09:21:46;100922.09;;;2.24;100.00
36748;BME280;22716;51.556;5.080;2022-11-20T09:24:17;100922.25;;;2.30;100.00
36748;BME280;22716;51.556;5.080;2022-11-20T09:26:47;100926.66;;;2.34;100.00
36748;BME280;22716;51.556;5.080;2022-11-20T09:29:18;100916.34;;;2.36;100.00
36748;BME280;22716;51.556;5.080;2022-11-20T09:31:49;100913.84;;;2.39;100.00
36748;BME280;22716;51.556;5.080;2022-11-20T09:34:20;100909.63;;;2.42;100.00
36748;BME280;22716;51.556;5.080;2022-11-20T09:36:50;100903.50;;;2.39;100.00
36748;BME280;22716;51.556;5.080;2022-11-20T09:39:19;100895.06;;;2.47;100.00
36748;BME280;22716;51.556;5.080;2022-11-20T09:42:04;100883.91;;;2.48;100.00
36748;BME280;22716;51.556;5.080;2022-11-20T09:44:51;100885.88;;;2.58;100.00
36748;BME280;22716;51.556;5.080;2022-11-20T09:47:31;100877.16;;;2.55;100.00
36748;BME280;22716;51.556;5.080;2022-11-20T09:50:20;100871.25;;;2.62;100.00
36748;BME280;22716;51.556;5.080;2022-11-20T09:52:59;100879.28;;;2.72;100.00
36748;BME280;22716;51.556;5.080;2022-11-20T09:55:37;100859.47;;;2.74;100.00
36748;BME280;22716;51.556;5.080;2022-11-20T09:58:12;100867.50;;;2.87;100.00
36748;BME280;22716;51.556;5.080;2022-11-20T10:00:44;100849.28;;;2.82;100.00
36748;BME280;22716;51.556;5.080;2022-11-20T10:03:19;100824.19;;;2.78;100.00
36748;BME280;22716;51.556;5.080;2022-11-20T10:05:57;100842.75;;;2.99;100.00
36748;BME280;22716;51.556;5.080;2022-11-20T10:08:35;100835.00;;;3.01;100.00
36748;BME280;22716;51.556;5.080;2022-11-20T10:11:15;100830.66;;;2.98;100.00
36748;BME280;22716;51.556;5.080;2022-11-20T10:13:53;100815.81;;;2.91;100.00
36748;BME280;22716;51.556;5.080;2022-11-20T10:16:34;100832.47;;;3.04;100.00
36748;BME280;22716;51.556;5.080;2022-11-20T10:19:18;100833.38;;;3.06;100.00
36748;BME280;22716;51.556;5.080;2022-11-20T10:22:09;100828.38;;;3.15;100.00
36748;BME280;22716;51.556;5.080;2022-11-20T10:24:48;100818.91;;;3.15;100.00
36748;BME280;22716;51.556;5.080;2022-11-20T10:27:35;100824.25;;;3.26;100.00
36748;BME280;22716;51.556;5.080;2022-11-20T10:30:10;100806.97;;;3.23;100.00
36748;BME280;22716;51.556;5.080;2022-11-20T10:32:42;100798.41;;;3.27;100.00
36748;BME280;22716;51.556;5.080;2022-11-20T10:35:20;100801.06;;;3.30;100.00
36748;BME280;22716;51.556;5.080;2022-11-20T10:37:56;100787.19;;;3.27;100.00
36748;BME280;22716;51.556;5.080;2022-11-20T10:40:33;100776.88;;;3.30;100.00
36748;BME280;22716;51.556;5.080;2022-11-20T10:43:09;100770.97;;;3.38;100.00
36748;BME280;22716;51.556;5.080;2022-11-20T10:45:49;100776.16;;;3.38;100.00
36748;BME280;22716;51.556;5.080;2022-11-20T10:48:24;100764.16;;;3.44;100.00
36748;BME280;22716;51.556;5.080;2022-11-20T10:51:15;100768.56;;;3.48;100.00
36748;BME280;22716;51.556;5.080;2022-11-20T10:54:10;100766.84;;;3.48;100.00
36748;BME280;22716;51.556;5.080;2022-11-20T10:56:45;100772.03;;;3.48;100.00
36748;BME280;22716;51.556;5.080;2022-11-20T10:59:42;100754.72;;;3.47;100.00
36748;BME280;22716;51.556;5.080;2022-11-20T11:02:18;100759.13;;;3.53;100.00
36748;BME280;22716;51.556;5.080;2022-11-20T11:04:50;100757.47;;;3.56;100.00
36748;BME280;22716;51.556;5.080;2022-11-20T11:07:22;100741.00;;;3.53;100.00
36748;BME280;22716;51.556;5.080;2022-11-20T11:09:58;100744.50;;;3.56;100.00
36748;BME280;22716;51.556;5.080;2022-11-20T11:12:28;100744.63;;;3.62;100.00
36748;BME280;22716;51.556;5.080;2022-11-20T11:14:57;100741.28;;;3.69;100.00
36748;BME280;22716;51.556;5.080;2022-11-20T11:17:28;100732.75;;;3.76;100.00
36748;BME280;22716;51.556;5.080;2022-11-20T11:20:14;100730.28;;;3.84;100.00
36748;BME280;22716;51.556;5.080;2022-11-20T11:22:48;100736.41;;;3.89;100.00
36748;BME280;22716;51.556;5.080;2022-11-20T11:25:41;100729.41;;;3.85;100.00
36748;BME280;22716;51.556;5.080;2022-11-20T11:28:21;100724.22;;;3.83;100.00
36748;BME280;22716;51.556;5.080;2022-11-20T11:30:53;100719.03;;;3.83;100.00
36748;BME280;22716;51.556;5.080;2022-11-20T11:33:26;100716.44;;;3.85;100.00
36748;BME280;22716;51.556;5.080;2022-11-20T11:35:57;100710.47;;;3.87;100.00
36748;BME280;22716;51.556;5.080;2022-11-20T11:38:29;100703.56;;;3.89;100.00
36748;BME280;22716;51.556;5.080;2022-11-20T11:41:03;100691.50;;;3.90;100.00
36748;BME280;22716;51.556;5.080;2022-11-20T11:43:35;100690.66;;;3.92;100.00
36748;BME280;22716;51.556;5.080;2022-11-20T11:46:27;100682.00;;;3.93;100.00
36748;BME280;22716;51.556;5.080;2022-11-20T11:48:59;100665.66;;;3.96;100.00
36748;BME280;22716;51.556;5.080;2022-11-20T11:51:34;100653.53;;;3.96;100.00
36748;BME280;22716;51.556;5.080;2022-11-20T11:54:15;100645.81;;;4.00;100.00
36748;BME280;22716;51.556;5.080;2022-11-20T11:56:49;100635.47;;;4.03;100.00
36748;BME280;22716;51.556;5.080;2022-11-20T11:59:27;100631.16;;;4.03;100.00
36748;BME280;22716;51.556;5.080;2022-11-20T12:02:03;100625.09;;;4.03;100.00
36748;BME280;22716;51.556;5.080;2022-11-20T12:04:46;100613.91;;;4.04;100.00
36748;BME280;22716;51.556;5.080;2022-11-20T12:07:29;100614.00;;;4.13;100.00
36748;BME280;22716;51.556;5.080;2022-11-20T12:10:07;100618.41;;;4.18;100.00
36748;BME280;22716;51.556;5.080;2022-11-20T12:12:53;100607.19;;;4.19;100.00
36748;BME280;22716;51.556;5.080;2022-11-20T12:15:29;100611.66;;;4.34;100.00
36748;BME280;22716;51.556;5.080;2022-11-20T12:17:59;100593.44;;;4.29;100.00
36748;BME280;22716;51.556;5.080;2022-11-20T12:20:33;100603.91;;;4.37;100.00
36748;BME280;22716;51.556;5.080;2022-11-20T12:23:09;100608.25;;;4.39;100.00
36748;BME280;22716;51.556;5.080;2022-11-20T12:25:48;100608.22;;;4.38;100.00
36748;BME280;22716;51.556;5.080;2022-11-20T12:28:45;100595.31;;;4.42;100.00
36748;BME280;22716;51.556;5.080;2022-11-20T12:31:55;100591.91;;;4.48;100.00
36748;BME280;22716;51.556;5.080;2022-11-20T12:34:47;100586.81;;;4.57;100.00
36748;BME280;22716;51.556;5.080;2022-11-20T12:37:33;100574.72;;;4.59;100.00
36748;BME280;22716;51.556;5.080;2022-11-20T12:40:23;100566.06;;;4.57;100.00
36748;BME280;22716;51.556;5.080;2022-11-20T12:43:06;100554.03;;;4.65;100.00
36748;BME280;22716;51.556;5.080;2022-11-20T12:46:26;100551.47;;;4.67;100.00
36748;BME280;22716;51.556;5.080;2022-11-20T12:49:43;100538.53;;;4.76;100.00
36748;BME280;22716;51.556;5.080;2022-11-20T12:52:24;100533.41;;;4.83;100.00
36748;BME280;22716;51.556;5.080;2022-11-20T12:55:16;100524.78;;;4.86;100.00
36748;BME280;22716;51.556;5.080;2022-11-20T12:57:54;100520.47;;;4.88;100.00
36748;BME280;22716;51.556;5.080;2022-11-20T13:00:25;100517.84;;;4.85;100.00
36748;BME280;22716;51.556;5.080;2022-11-20T13:03:11;100510.94;;;4.88;100.00
36748;BME280;22716;51.556;5.080;2022-11-20T13:05:51;100503.19;;;4.91;100.00
36748;BME280;22716;51.556;5.080;2022-11-20T13:08:25;100486.75;;;4.91;100.00
36748;BME280;22716;51.556;5.080;2022-11-20T13:11:01;100486.75;;;4.92;100.00
36748;BME280;22716;51.556;5.080;2022-11-20T13:13:40;100477.22;;;4.88;100.00
36748;BME280;22716;51.556;5.080;2022-11-20T13:16:19;100483.31;;;4.99;100.00
36748;BME280;22716;51.556;5.080;2022-11-20T13:18:51;100476.44;;;5.01;100.00
36748;BME280;22716;51.556;5.080;2022-11-20T13:21:35;100466.91;;;5.02;100.00
36748;BME280;22716;51.556;5.080;2022-11-20T13:24:20;100465.25;;;5.10;100.00
36748;BME280;22716;51.556;5.080;2022-11-20T13:27:20;100458.34;;;5.15;100.00
36748;BME280;22716;51.556;5.080;2022-11-20T13:30:12;100449.72;;;5.19;100.00
36748;BME280;22716;51.556;5.080;2022-11-20T13:32:54;100454.03;;;5.22;100.00